sensor_id;sensor_type;location;lat;lon;timestamp;P1;durP1;ratioP1;P2;durP2;ratioP2
59147;SDS011;44930;52.878;6.168;2022-10-16T00:01:19;7.75;;;1.80;;
59147;SDS011;44930;52.878;6.168;2022-10-16T00:03:47;6.30;;;1.52;;
59147;SDS011;44930;52.878;6.168;2022-10-16T00:06:14;5.32;;;1.27;;
59147;SDS011;44930;52.878;6.168;2022-10-16T00:08:41;5.93;;;1.55;;
59147;SDS011;44930;52.878;6.168;2022-10-16T00:11:17;6.03;;;1.73;;
59147;SDS011;44930;52.878;6.168;2022-10-16T00:13:45;6.63;;;1.60;;
59147;SDS011;44930;52.878;6.168;2022-10-16T00:16:13;8.05;;;2.08;;
59147;SDS011;44930;52.878;6.168;2022-10-16T00:18:39;12.13;;;1.40;;
59147;SDS011;44930;52.878;6.168;2022-10-16T00:21:09;5.15;;;1.50;;
59147;SDS011;44930;52.878;6.168;2022-10-16T00:23:37;6.55;;;1.70;;
59147;SDS011;44930;52.878;6.168;2022-10-16T00:26:06;4.65;;;1.70;;
59147;SDS011;44930;52.878;6.168;2022-10-16T00:28:34;5.32;;;1.67;;
59147;SDS011;44930;52.878;6.168;2022-10-16T00:31:04;5.13;;;1.45;;
59147;SDS011;44930;52.878;6.168;2022-10-16T00:33:31;6.13;;;1.52;;
59147;SDS011;44930;52.878;6.168;2022-10-16T00:35:58;5.65;;;1.40;;
59147;SDS011;44930;52.878;6.168;2022-10-16T00:38:24;6.85;;;1.35;;
59147;SDS011;44930;52.878;6.168;2022-10-16T00:40:49;5.63;;;1.52;;
59147;SDS011;44930;52.878;6.168;2022-10-16T00:46:08;5.25;;;2.25;;
59147;SDS011;44930;52.878;6.168;2022-10-16T00:48:36;7.78;;;1.80;;
59147;SDS011;44930;52.878;6.168;2022-10-16T00:51:01;7.07;;;2.05;;
59147;SDS011;44930;52.878;6.168;2022-10-16T00:53:28;5.20;;;1.48;;
59147;SDS011;44930;52.878;6.168;2022-10-16T00:55:54;5.07;;;2.05;;
59147;SDS011;44930;52.878;6.168;2022-10-16T00:58:19;7.28;;;1.80;;
59147;SDS011;44930;52.878;6.168;2022-10-16T01:00:45;6.15;;;1.60;;
59147;SDS011;44930;52.878;6.168;2022-10-16T01:11:19;3.17;;;1.77;;
59147;SDS011;44930;52.878;6.168;2022-10-16T01:13:48;7.28;;;2.30;;
59147;SDS011;44930;52.878;6.168;2022-10-16T01:19:36;6.20;;;1.70;;
59147;SDS011;44930;52.878;6.168;2022-10-16T01:22:16;6.38;;;1.52;;
59147;SDS011;44930;52.878;6.168;2022-10-16T01:24:44;5.25;;;1.70;;
59147;SDS011;44930;52.878;6.168;2022-10-16T01:27:25;4.95;;;1.83;;
59147;SDS011;44930;52.878;6.168;2022-10-16T01:30:07;5.70;;;1.50;;
59147;SDS011;44930;52.878;6.168;2022-10-16T01:35:23;4.88;;;1.33;;
59147;SDS011;44930;52.878;6.168;2022-10-16T01:38:08;6.72;;;1.50;;
59147;SDS011;44930;52.878;6.168;2022-10-16T01:40:49;5.97;;;1.60;;
59147;SDS011;44930;52.878;6.168;2022-10-16T01:43:25;7.32;;;1.80;;
59147;SDS011;44930;52.878;6.168;2022-10-16T01:45:55;4.27;;;1.90;;
59147;SDS011;44930;52.878;6.168;2022-10-16T01:48:23;5.13;;;1.40;;
59147;SDS011;44930;52.878;6.168;2022-10-16T01:51:11;5.47;;;1.70;;
59147;SDS011;44930;52.878;6.168;2022-10-16T01:53:37;7.88;;;1.45;;
59147;SDS011;44930;52.878;6.168;2022-10-16T01:56:06;3.42;;;1.20;;
59147;SDS011;44930;52.878;6.168;2022-10-16T01:58:36;4.47;;;1.27;;
59147;SDS011;44930;52.878;6.168;2022-10-16T02:01:06;3.20;;;1.50;;
59147;SDS011;44930;52.878;6.168;2022-10-16T02:03:34;4.72;;;1.73;;
59147;SDS011;44930;52.878;6.168;2022-10-16T02:06:02;3.90;;;1.45;;
59147;SDS011;44930;52.878;6.168;2022-10-16T02:08:28;4.63;;;1.35;;
59147;SDS011;44930;52.878;6.168;2022-10-16T02:10:56;5.93;;;2.58;;
59147;SDS011;44930;52.878;6.168;2022-10-16T02:13:23;5.32;;;1.52;;
59147;SDS011;44930;52.878;6.168;2022-10-16T02:16:12;3.00;;;1.38;;
59147;SDS011;44930;52.878;6.168;2022-10-16T02:18:39;4.00;;;1.50;;
59147;SDS011;44930;52.878;6.168;2022-10-16T02:24:18;5.20;;;1.92;;
59147;SDS011;44930;52.878;6.168;2022-10-16T02:27:00;2.22;;;1.30;;
59147;SDS011;44930;52.878;6.168;2022-10-16T02:29:33;7.60;;;2.40;;
59147;SDS011;44930;52.878;6.168;2022-10-16T02:32:04;4.72;;;1.48;;
59147;SDS011;44930;52.878;6.168;2022-10-16T02:34:33;3.70;;;1.55;;
59147;SDS011;44930;52.878;6.168;2022-10-16T02:37:00;4.35;;;2.00;;
59147;SDS011;44930;52.878;6.168;2022-10-16T02:39:28;4.70;;;1.60;;
59147;SDS011;44930;52.878;6.168;2022-10-16T02:41:54;4.50;;;1.80;;
59147;SDS011;44930;52.878;6.168;2022-10-16T02:44:20;5.85;;;1.65;;
59147;SDS011;44930;52.878;6.168;2022-10-16T02:46:45;5.22;;;1.77;;
59147;SDS011;44930;52.878;6.168;2022-10-16T02:49:11;3.15;;;1.50;;
59147;SDS011;44930;52.878;6.168;2022-10-16T02:51:36;5.03;;;2.00;;
59147;SDS011;44930;52.878;6.168;2022-10-16T02:54:02;6.65;;;1.50;;
59147;SDS011;44930;52.878;6.168;2022-10-16T02:56:28;5.32;;;2.33;;
59147;SDS011;44930;52.878;6.168;2022-10-16T02:58:54;5.32;;;2.08;;
59147;SDS011;44930;52.878;6.168;2022-10-16T03:01:20;2.88;;;1.77;;
59147;SDS011;44930;52.878;6.168;2022-10-16T03:03:46;4.43;;;1.85;;
59147;SDS011;44930;52.878;6.168;2022-10-16T03:06:11;3.47;;;1.55;;
59147;SDS011;44930;52.878;6.168;2022-10-16T03:08:37;5.97;;;2.13;;
59147;SDS011;44930;52.878;6.168;2022-10-16T03:11:02;4.47;;;1.60;;
59147;SDS011;44930;52.878;6.168;2022-10-16T03:13:28;7.53;;;1.85;;
59147;SDS011;44930;52.878;6.168;2022-10-16T03:15:54;7.22;;;1.75;;
59147;SDS011;44930;52.878;6.168;2022-10-16T03:18:19;3.58;;;1.70;;
59147;SDS011;44930;52.878;6.168;2022-10-16T03:20:45;6.75;;;1.52;;
59147;SDS011;44930;52.878;6.168;2022-10-16T03:23:11;3.95;;;2.17;;
59147;SDS011;44930;52.878;6.168;2022-10-16T03:25:36;3.38;;;1.40;;
59147;SDS011;44930;52.878;6.168;2022-10-16T03:28:02;5.25;;;2.00;;
59147;SDS011;44930;52.878;6.168;2022-10-16T03:30:28;3.95;;;1.52;;
59147;SDS011;44930;52.878;6.168;2022-10-16T03:32:54;7.82;;;1.90;;
59147;SDS011;44930;52.878;6.168;2022-10-16T03:35:20;3.22;;;1.60;;
59147;SDS011;44930;52.878;6.168;2022-10-16T03:37:46;4.88;;;1.63;;
59147;SDS011;44930;52.878;6.168;2022-10-16T03:40:13;4.40;;;1.65;;
59147;SDS011;44930;52.878;6.168;2022-10-16T03:42:38;4.50;;;1.38;;
59147;SDS011;44930;52.878;6.168;2022-10-16T03:45:04;4.63;;;1.50;;
59147;SDS011;44930;52.878;6.168;2022-10-16T03:47:30;4.47;;;1.75;;
59147;SDS011;44930;52.878;6.168;2022-10-16T03:49:58;4.13;;;1.88;;
59147;SDS011;44930;52.878;6.168;2022-10-16T03:52:24;4.28;;;1.48;;
59147;SDS011;44930;52.878;6.168;2022-10-16T03:54:50;3.40;;;1.50;;
59147;SDS011;44930;52.878;6.168;2022-10-16T03:57:15;3.78;;;1.40;;
59147;SDS011;44930;52.878;6.168;2022-10-16T03:59:41;5.55;;;1.90;;
59147;SDS011;44930;52.878;6.168;2022-10-16T04:02:07;5.50;;;1.75;;
59147;SDS011;44930;52.878;6.168;2022-10-16T04:04:32;8.63;;;2.53;;
59147;SDS011;44930;52.878;6.168;2022-10-16T04:06:58;2.88;;;1.50;;
59147;SDS011;44930;52.878;6.168;2022-10-16T04:09:23;3.33;;;1.63;;
59147;SDS011;44930;52.878;6.168;2022-10-16T04:11:49;7.30;;;2.00;;
59147;SDS011;44930;52.878;6.168;2022-10-16T04:14:14;2.50;;;1.70;;
59147;SDS011;44930;52.878;6.168;2022-10-16T04:16:40;2.83;;;1.60;;
59147;SDS011;44930;52.878;6.168;2022-10-16T04:19:06;6.00;;;2.05;;
59147;SDS011;44930;52.878;6.168;2022-10-16T04:21:31;4.38;;;1.95;;
59147;SDS011;44930;52.878;6.168;2022-10-16T04:23:57;5.93;;;1.60;;
59147;SDS011;44930;52.878;6.168;2022-10-16T04:26:22;6.43;;;1.60;;
59147;SDS011;44930;52.878;6.168;2022-10-16T04:28:48;4.35;;;2.45;;
59147;SDS011;44930;52.878;6.168;2022-10-16T04:31:13;5.00;;;1.83;;
59147;SDS011;44930;52.878;6.168;2022-10-16T04:33:41;6.63;;;1.65;;
59147;SDS011;44930;52.878;6.168;2022-10-16T04:36:08;4.40;;;1.65;;
59147;SDS011;44930;52.878;6.168;2022-10-16T04:38:33;6.63;;;2.20;;
59147;SDS011;44930;52.878;6.168;2022-10-16T04:40:59;4.88;;;1.80;;
59147;SDS011;44930;52.878;6.168;2022-10-16T04:43:25;3.72;;;2.13;;
59147;SDS011;44930;52.878;6.168;2022-10-16T04:45:50;5.72;;;2.38;;
59147;SDS011;44930;52.878;6.168;2022-10-16T04:48:16;5.03;;;1.83;;
59147;SDS011;44930;52.878;6.168;2022-10-16T04:50:43;7.20;;;1.92;;
59147;SDS011;44930;52.878;6.168;2022-10-16T04:53:08;3.25;;;1.90;;
59147;SDS011;44930;52.878;6.168;2022-10-16T04:55:34;5.00;;;2.10;;
59147;SDS011;44930;52.878;6.168;2022-10-16T04:58:00;6.60;;;2.40;;
59147;SDS011;44930;52.878;6.168;2022-10-16T05:00:25;5.60;;;2.40;;
59147;SDS011;44930;52.878;6.168;2022-10-16T05:02:51;5.05;;;2.45;;
59147;SDS011;44930;52.878;6.168;2022-10-16T05:05:17;5.53;;;2.25;;
59147;SDS011;44930;52.878;6.168;2022-10-16T05:07:44;5.90;;;2.05;;
59147;SDS011;44930;52.878;6.168;2022-10-16T05:10:10;7.32;;;2.50;;
59147;SDS011;44930;52.878;6.168;2022-10-16T05:12:36;5.28;;;2.28;;
59147;SDS011;44930;52.878;6.168;2022-10-16T05:15:02;6.63;;;3.65;;
59147;SDS011;44930;52.878;6.168;2022-10-16T05:17:28;5.28;;;2.85;;
59147;SDS011;44930;52.878;6.168;2022-10-16T05:19:53;4.85;;;2.40;;
59147;SDS011;44930;52.878;6.168;2022-10-16T05:22:19;4.78;;;2.97;;
59147;SDS011;44930;52.878;6.168;2022-10-16T05:24:45;6.95;;;2.67;;
59147;SDS011;44930;52.878;6.168;2022-10-16T05:27:10;6.18;;;2.63;;
59147;SDS011;44930;52.878;6.168;2022-10-16T05:29:36;6.57;;;2.33;;
59147;SDS011;44930;52.878;6.168;2022-10-16T05:32:02;4.15;;;2.40;;
59147;SDS011;44930;52.878;6.168;2022-10-16T05:34:27;5.80;;;2.85;;
59147;SDS011;44930;52.878;6.168;2022-10-16T05:36:53;3.75;;;2.60;;
59147;SDS011;44930;52.878;6.168;2022-10-16T05:39:19;4.05;;;2.60;;
59147;SDS011;44930;52.878;6.168;2022-10-16T05:41:44;4.97;;;3.05;;
59147;SDS011;44930;52.878;6.168;2022-10-16T05:44:10;3.03;;;2.20;;
59147;SDS011;44930;52.878;6.168;2022-10-16T05:46:36;6.38;;;2.63;;
59147;SDS011;44930;52.878;6.168;2022-10-16T05:49:02;4.22;;;2.60;;
59147;SDS011;44930;52.878;6.168;2022-10-16T05:51:28;8.15;;;2.58;;
59147;SDS011;44930;52.878;6.168;2022-10-16T05:53:53;4.95;;;2.20;;
59147;SDS011;44930;52.878;6.168;2022-10-16T05:56:19;3.67;;;2.33;;
59147;SDS011;44930;52.878;6.168;2022-10-16T05:58:44;11.02;;;2.50;;
59147;SDS011;44930;52.878;6.168;2022-10-16T06:01:12;7.25;;;2.60;;
59147;SDS011;44930;52.878;6.168;2022-10-16T06:03:39;5.78;;;2.60;;
59147;SDS011;44930;52.878;6.168;2022-10-16T06:06:08;7.50;;;2.92;;
59147;SDS011;44930;52.878;6.168;2022-10-16T06:08:35;7.88;;;2.75;;
59147;SDS011;44930;52.878;6.168;2022-10-16T06:11:04;6.78;;;2.60;;
59147;SDS011;44930;52.878;6.168;2022-10-16T06:13:31;5.72;;;2.22;;
59147;SDS011;44930;52.878;6.168;2022-10-16T06:15:57;6.25;;;2.88;;
59147;SDS011;44930;52.878;6.168;2022-10-16T06:18:24;4.78;;;2.65;;
59147;SDS011;44930;52.878;6.168;2022-10-16T06:20:51;5.15;;;3.13;;
59147;SDS011;44930;52.878;6.168;2022-10-16T06:23:16;4.55;;;2.42;;
59147;SDS011;44930;52.878;6.168;2022-10-16T06:25:42;8.80;;;3.25;;
59147;SDS011;44930;52.878;6.168;2022-10-16T06:28:07;6.13;;;2.78;;
59147;SDS011;44930;52.878;6.168;2022-10-16T06:30:33;3.03;;;2.10;;
59147;SDS011;44930;52.878;6.168;2022-10-16T06:32:58;6.68;;;3.42;;
59147;SDS011;44930;52.878;6.168;2022-10-16T06:35:24;6.38;;;2.70;;
59147;SDS011;44930;52.878;6.168;2022-10-16T06:37:49;5.88;;;2.40;;
59147;SDS011;44930;52.878;6.168;2022-10-16T06:40:15;6.68;;;3.47;;
59147;SDS011;44930;52.878;6.168;2022-10-16T06:42:41;4.25;;;2.70;;
59147;SDS011;44930;52.878;6.168;2022-10-16T06:45:07;3.70;;;2.60;;
59147;SDS011;44930;52.878;6.168;2022-10-16T06:47:32;5.38;;;2.63;;
59147;SDS011;44930;52.878;6.168;2022-10-16T06:49:58;5.55;;;2.33;;
59147;SDS011;44930;52.878;6.168;2022-10-16T06:52:23;4.60;;;2.33;;
59147;SDS011;44930;52.878;6.168;2022-10-16T06:54:49;3.85;;;2.33;;
59147;SDS011;44930;52.878;6.168;2022-10-16T06:57:15;4.47;;;2.30;;
59147;SDS011;44930;52.878;6.168;2022-10-16T06:59:41;6.07;;;2.30;;
59147;SDS011;44930;52.878;6.168;2022-10-16T07:02:07;6.03;;;2.42;;
59147;SDS011;44930;52.878;6.168;2022-10-16T07:04:35;5.90;;;2.50;;
59147;SDS011;44930;52.878;6.168;2022-10-16T07:07:01;6.75;;;2.42;;
59147;SDS011;44930;52.878;6.168;2022-10-16T07:09:26;5.15;;;2.40;;
59147;SDS011;44930;52.878;6.168;2022-10-16T07:11:52;6.97;;;1.73;;
59147;SDS011;44930;52.878;6.168;2022-10-16T07:14:19;6.75;;;2.70;;
59147;SDS011;44930;52.878;6.168;2022-10-16T07:16:46;8.45;;;1.90;;
59147;SDS011;44930;52.878;6.168;2022-10-16T07:19:12;5.45;;;2.00;;
59147;SDS011;44930;52.878;6.168;2022-10-16T07:21:40;5.50;;;2.00;;
59147;SDS011;44930;52.878;6.168;2022-10-16T07:24:07;3.75;;;1.92;;
59147;SDS011;44930;52.878;6.168;2022-10-16T07:26:38;6.22;;;2.13;;
59147;SDS011;44930;52.878;6.168;2022-10-16T07:29:11;4.20;;;1.70;;
59147;SDS011;44930;52.878;6.168;2022-10-16T07:31:38;4.63;;;1.70;;
59147;SDS011;44930;52.878;6.168;2022-10-16T07:34:05;4.35;;;1.58;;
59147;SDS011;44930;52.878;6.168;2022-10-16T07:36:30;5.20;;;1.70;;
59147;SDS011;44930;52.878;6.168;2022-10-16T07:38:56;4.45;;;1.48;;
59147;SDS011;44930;52.878;6.168;2022-10-16T07:41:22;3.38;;;1.65;;
59147;SDS011;44930;52.878;6.168;2022-10-16T07:43:48;4.68;;;1.63;;
59147;SDS011;44930;52.878;6.168;2022-10-16T07:46:15;7.45;;;1.52;;
59147;SDS011;44930;52.878;6.168;2022-10-16T07:48:42;6.65;;;1.55;;
59147;SDS011;44930;52.878;6.168;2022-10-16T07:51:11;3.17;;;1.55;;
59147;SDS011;44930;52.878;6.168;2022-10-16T07:53:36;4.10;;;1.42;;
59147;SDS011;44930;52.878;6.168;2022-10-16T07:56:06;3.33;;;1.20;;
59147;SDS011;44930;52.878;6.168;2022-10-16T07:58:32;5.88;;;1.20;;
59147;SDS011;44930;52.878;6.168;2022-10-16T08:01:03;3.50;;;1.45;;
59147;SDS011;44930;52.878;6.168;2022-10-16T08:03:29;6.32;;;1.38;;
59147;SDS011;44930;52.878;6.168;2022-10-16T08:05:56;3.38;;;1.15;;
59147;SDS011;44930;52.878;6.168;2022-10-16T08:08:23;4.05;;;1.10;;
59147;SDS011;44930;52.878;6.168;2022-10-16T08:10:48;5.93;;;1.17;;
59147;SDS011;44930;52.878;6.168;2022-10-16T08:13:14;3.33;;;0.98;;
59147;SDS011;44930;52.878;6.168;2022-10-16T08:15:40;2.90;;;1.02;;
59147;SDS011;44930;52.878;6.168;2022-10-16T08:18:06;7.35;;;1.85;;
59147;SDS011;44930;52.878;6.168;2022-10-16T08:20:32;1.75;;;0.95;;
59147;SDS011;44930;52.878;6.168;2022-10-16T08:22:59;3.20;;;1.15;;
59147;SDS011;44930;52.878;6.168;2022-10-16T08:25:25;5.88;;;2.33;;
59147;SDS011;44930;52.878;6.168;2022-10-16T08:27:51;4.72;;;1.40;;
59147;SDS011;44930;52.878;6.168;2022-10-16T08:30:17;3.85;;;1.15;;
59147;SDS011;44930;52.878;6.168;2022-10-16T08:32:44;4.88;;;1.67;;
59147;SDS011;44930;52.878;6.168;2022-10-16T08:35:09;4.13;;;1.40;;
59147;SDS011;44930;52.878;6.168;2022-10-16T08:37:36;7.65;;;2.03;;
59147;SDS011;44930;52.878;6.168;2022-10-16T08:40:02;2.88;;;1.60;;
59147;SDS011;44930;52.878;6.168;2022-10-16T08:48:04;5.32;;;1.55;;
59147;SDS011;44930;52.878;6.168;2022-10-16T08:50:51;5.25;;;1.70;;
59147;SDS011;44930;52.878;6.168;2022-10-16T08:53:20;6.78;;;2.20;;
59147;SDS011;44930;52.878;6.168;2022-10-16T08:55:55;7.43;;;1.65;;
59147;SDS011;44930;52.878;6.168;2022-10-16T08:58:26;7.20;;;1.63;;
59147;SDS011;44930;52.878;6.168;2022-10-16T09:00:54;3.92;;;1.40;;
59147;SDS011;44930;52.878;6.168;2022-10-16T09:09:09;7.57;;;1.60;;
59147;SDS011;44930;52.878;6.168;2022-10-16T09:12:17;3.85;;;1.30;;
59147;SDS011;44930;52.878;6.168;2022-10-16T09:20:10;7.18;;;1.63;;
59147;SDS011;44930;52.878;6.168;2022-10-16T09:22:43;7.97;;;1.67;;
59147;SDS011;44930;52.878;6.168;2022-10-16T09:25:13;10.63;;;1.73;;
59147;SDS011;44930;52.878;6.168;2022-10-16T09:27:41;7.35;;;1.73;;
59147;SDS011;44930;52.878;6.168;2022-10-16T09:30:16;8.73;;;2.40;;
59147;SDS011;44930;52.878;6.168;2022-10-16T09:32:43;11.45;;;1.88;;
59147;SDS011;44930;52.878;6.168;2022-10-16T09:35:18;6.13;;;1.60;;
59147;SDS011;44930;52.878;6.168;2022-10-16T09:37:47;7.75;;;1.50;;
59147;SDS011;44930;52.878;6.168;2022-10-16T09:40:26;5.25;;;1.70;;
59147;SDS011;44930;52.878;6.168;2022-10-16T09:48:31;12.55;;;1.95;;
59147;SDS011;44930;52.878;6.168;2022-10-16T09:51:05;6.03;;;2.20;;
59147;SDS011;44930;52.878;6.168;2022-10-16T09:53:44;9.82;;;2.58;;
59147;SDS011;44930;52.878;6.168;2022-10-16T09:56:12;8.15;;;2.10;;
59147;SDS011;44930;52.878;6.168;2022-10-16T09:58:51;10.95;;;1.70;;
59147;SDS011;44930;52.878;6.168;2022-10-16T10:01:22;11.73;;;1.42;;
59147;SDS011;44930;52.878;6.168;2022-10-16T10:03:55;8.95;;;2.15;;
59147;SDS011;44930;52.878;6.168;2022-10-16T10:06:27;8.52;;;1.90;;
59147;SDS011;44930;52.878;6.168;2022-10-16T10:09:00;9.55;;;2.47;;
59147;SDS011;44930;52.878;6.168;2022-10-16T10:14:47;14.20;;;1.85;;
59147;SDS011;44930;52.878;6.168;2022-10-16T10:17:18;10.77;;;1.83;;
59147;SDS011;44930;52.878;6.168;2022-10-16T10:19:55;11.60;;;2.13;;
59147;SDS011;44930;52.878;6.168;2022-10-16T10:22:28;8.07;;;1.85;;
59147;SDS011;44930;52.878;6.168;2022-10-16T10:30:37;10.13;;;2.13;;
59147;SDS011;44930;52.878;6.168;2022-10-16T10:35:54;16.58;;;2.72;;
59147;SDS011;44930;52.878;6.168;2022-10-16T10:38:52;10.07;;;3.30;;
59147;SDS011;44930;52.878;6.168;2022-10-16T10:44:26;8.48;;;2.20;;
59147;SDS011;44930;52.878;6.168;2022-10-16T10:47:06;12.15;;;2.00;;
59147;SDS011;44930;52.878;6.168;2022-10-16T11:03:13;11.52;;;2.20;;
59147;SDS011;44930;52.878;6.168;2022-10-16T11:06:11;11.48;;;2.33;;
59147;SDS011;44930;52.878;6.168;2022-10-16T11:08:48;10.07;;;2.30;;
59147;SDS011;44930;52.878;6.168;2022-10-16T11:11:20;8.25;;;2.17;;
59147;SDS011;44930;52.878;6.168;2022-10-16T11:14:03;13.25;;;2.63;;
59147;SDS011;44930;52.878;6.168;2022-10-16T11:16:54;12.98;;;3.03;;
59147;SDS011;44930;52.878;6.168;2022-10-16T11:19:33;10.88;;;2.30;;
59147;SDS011;44930;52.878;6.168;2022-10-16T11:22:13;17.15;;;3.03;;
59147;SDS011;44930;52.878;6.168;2022-10-16T11:27:44;12.25;;;2.55;;
59147;SDS011;44930;52.878;6.168;2022-10-16T11:30:26;11.65;;;2.00;;
59147;SDS011;44930;52.878;6.168;2022-10-16T11:41:17;11.68;;;2.58;;
59147;SDS011;44930;52.878;6.168;2022-10-16T11:43:58;10.80;;;2.40;;
59147;SDS011;44930;52.878;6.168;2022-10-16T11:46:34;11.57;;;2.30;;
59147;SDS011;44930;52.878;6.168;2022-10-16T11:49:06;12.38;;;2.10;;
59147;SDS011;44930;52.878;6.168;2022-10-16T11:51:42;13.48;;;2.75;;
59147;SDS011;44930;52.878;6.168;2022-10-16T11:54:33;12.90;;;1.83;;
59147;SDS011;44930;52.878;6.168;2022-10-16T11:57:17;11.07;;;2.28;;
59147;SDS011;44930;52.878;6.168;2022-10-16T12:02:33;8.50;;;1.63;;
59147;SDS011;44930;52.878;6.168;2022-10-16T12:08:08;16.45;;;2.83;;
59147;SDS011;44930;52.878;6.168;2022-10-16T12:10:40;15.07;;;3.00;;
59147;SDS011;44930;52.878;6.168;2022-10-16T12:18:46;13.13;;;2.97;;
59147;SDS011;44930;52.878;6.168;2022-10-16T12:21:13;12.85;;;2.35;;
59147;SDS011;44930;52.878;6.168;2022-10-16T12:23:50;13.00;;;2.40;;
59147;SDS011;44930;52.878;6.168;2022-10-16T12:26:24;9.52;;;1.55;;
59147;SDS011;44930;52.878;6.168;2022-10-16T12:28:56;8.80;;;2.03;;
59147;SDS011;44930;52.878;6.168;2022-10-16T12:31:54;10.90;;;2.67;;
59147;SDS011;44930;52.878;6.168;2022-10-16T12:34:21;6.43;;;1.33;;
59147;SDS011;44930;52.878;6.168;2022-10-16T12:36:47;7.90;;;2.00;;
59147;SDS011;44930;52.878;6.168;2022-10-16T12:39:31;7.28;;;1.58;;
59147;SDS011;44930;52.878;6.168;2022-10-16T12:42:01;9.27;;;1.92;;
59147;SDS011;44930;52.878;6.168;2022-10-16T12:44:47;9.63;;;2.42;;
59147;SDS011;44930;52.878;6.168;2022-10-16T12:49:57;10.45;;;2.47;;
59147;SDS011;44930;52.878;6.168;2022-10-16T12:52:44;10.77;;;1.50;;
59147;SDS011;44930;52.878;6.168;2022-10-16T12:55:15;12.98;;;2.10;;
59147;SDS011;44930;52.878;6.168;2022-10-16T13:03:21;10.02;;;2.17;;
59147;SDS011;44930;52.878;6.168;2022-10-16T13:11:50;12.65;;;2.28;;
59147;SDS011;44930;52.878;6.168;2022-10-16T13:20:01;16.60;;;2.75;;
59147;SDS011;44930;52.878;6.168;2022-10-16T13:22:39;11.73;;;2.28;;
59147;SDS011;44930;52.878;6.168;2022-10-16T13:28:05;9.93;;;1.70;;
59147;SDS011;44930;52.878;6.168;2022-10-16T13:30:43;10.50;;;2.25;;
59147;SDS011;44930;52.878;6.168;2022-10-16T13:33:16;9.52;;;2.22;;
59147;SDS011;44930;52.878;6.168;2022-10-16T13:35:47;11.07;;;2.22;;
59147;SDS011;44930;52.878;6.168;2022-10-16T13:38:15;14.13;;;2.65;;
59147;SDS011;44930;52.878;6.168;2022-10-16T13:40:50;11.48;;;2.30;;
59147;SDS011;44930;52.878;6.168;2022-10-16T13:43:20;13.65;;;2.35;;
59147;SDS011;44930;52.878;6.168;2022-10-16T13:46:01;10.85;;;2.22;;
59147;SDS011;44930;52.878;6.168;2022-10-16T13:48:31;10.68;;;2.33;;
59147;SDS011;44930;52.878;6.168;2022-10-16T13:50:59;10.48;;;2.25;;
59147;SDS011;44930;52.878;6.168;2022-10-16T13:53:30;11.82;;;2.42;;
59147;SDS011;44930;52.878;6.168;2022-10-16T13:55:57;5.72;;;1.52;;
59147;SDS011;44930;52.878;6.168;2022-10-16T13:58:22;15.85;;;2.58;;
59147;SDS011;44930;52.878;6.168;2022-10-16T14:00:55;9.52;;;1.83;;
59147;SDS011;44930;52.878;6.168;2022-10-16T14:03:22;13.80;;;2.35;;
59147;SDS011;44930;52.878;6.168;2022-10-16T14:05:50;11.02;;;2.72;;
59147;SDS011;44930;52.878;6.168;2022-10-16T14:08:18;12.93;;;2.30;;
59147;SDS011;44930;52.878;6.168;2022-10-16T14:10:47;12.27;;;2.53;;
59147;SDS011;44930;52.878;6.168;2022-10-16T14:13:16;14.25;;;2.78;;
59147;SDS011;44930;52.878;6.168;2022-10-16T14:15:48;11.82;;;2.13;;
59147;SDS011;44930;52.878;6.168;2022-10-16T14:18:20;16.70;;;2.55;;
59147;SDS011;44930;52.878;6.168;2022-10-16T14:20:47;8.95;;;1.70;;
59147;SDS011;44930;52.878;6.168;2022-10-16T14:23:28;16.48;;;2.53;;
59147;SDS011;44930;52.878;6.168;2022-10-16T14:28:38;14.35;;;2.20;;
59147;SDS011;44930;52.878;6.168;2022-10-16T14:33:44;14.00;;;2.22;;
59147;SDS011;44930;52.878;6.168;2022-10-16T14:38:43;15.35;;;2.05;;
59147;SDS011;44930;52.878;6.168;2022-10-16T14:41:22;14.32;;;2.00;;
59147;SDS011;44930;52.878;6.168;2022-10-16T14:43:53;9.98;;;2.70;;
59147;SDS011;44930;52.878;6.168;2022-10-16T14:46:21;15.85;;;2.88;;
59147;SDS011;44930;52.878;6.168;2022-10-16T14:48:57;13.35;;;2.67;;
59147;SDS011;44930;52.878;6.168;2022-10-16T14:51:27;12.93;;;1.95;;
59147;SDS011;44930;52.878;6.168;2022-10-16T14:53:52;10.43;;;2.47;;
59147;SDS011;44930;52.878;6.168;2022-10-16T14:56:19;12.27;;;1.77;;
59147;SDS011;44930;52.878;6.168;2022-10-16T14:58:50;10.43;;;2.47;;
59147;SDS011;44930;52.878;6.168;2022-10-16T15:01:16;12.75;;;2.40;;
59147;SDS011;44930;52.878;6.168;2022-10-16T15:03:43;11.20;;;2.10;;
59147;SDS011;44930;52.878;6.168;2022-10-16T15:06:12;7.47;;;2.00;;
59147;SDS011;44930;52.878;6.168;2022-10-16T15:08:39;11.98;;;3.03;;
59147;SDS011;44930;52.878;6.168;2022-10-16T15:11:05;11.52;;;2.25;;
59147;SDS011;44930;52.878;6.168;2022-10-16T15:13:36;14.48;;;2.13;;
59147;SDS011;44930;52.878;6.168;2022-10-16T15:16:02;10.65;;;2.90;;
59147;SDS011;44930;52.878;6.168;2022-10-16T15:18:28;9.45;;;2.20;;
59147;SDS011;44930;52.878;6.168;2022-10-16T15:20:53;18.67;;;2.22;;
59147;SDS011;44930;52.878;6.168;2022-10-16T15:23:20;13.95;;;2.83;;
59147;SDS011;44930;52.878;6.168;2022-10-16T15:25:47;12.23;;;2.97;;
59147;SDS011;44930;52.878;6.168;2022-10-16T15:28:14;7.90;;;2.58;;
59147;SDS011;44930;52.878;6.168;2022-10-16T15:30:41;10.55;;;1.80;;
59147;SDS011;44930;52.878;6.168;2022-10-16T15:33:14;13.23;;;2.33;;
59147;SDS011;44930;52.878;6.168;2022-10-16T15:35:41;13.65;;;1.92;;
59147;SDS011;44930;52.878;6.168;2022-10-16T15:38:11;12.75;;;2.10;;
59147;SDS011;44930;52.878;6.168;2022-10-16T15:40:38;13.25;;;2.55;;
59147;SDS011;44930;52.878;6.168;2022-10-16T15:43:05;8.27;;;1.70;;
59147;SDS011;44930;52.878;6.168;2022-10-16T15:45:30;11.77;;;2.58;;
59147;SDS011;44930;52.878;6.168;2022-10-16T15:47:56;9.32;;;1.77;;
59147;SDS011;44930;52.878;6.168;2022-10-16T15:50:22;10.43;;;2.45;;
59147;SDS011;44930;52.878;6.168;2022-10-16T15:52:47;12.73;;;2.40;;
59147;SDS011;44930;52.878;6.168;2022-10-16T15:55:14;11.27;;;2.10;;
59147;SDS011;44930;52.878;6.168;2022-10-16T15:57:40;8.30;;;1.98;;
59147;SDS011;44930;52.878;6.168;2022-10-16T16:00:08;12.80;;;2.75;;
59147;SDS011;44930;52.878;6.168;2022-10-16T16:02:40;11.60;;;2.63;;
59147;SDS011;44930;52.878;6.168;2022-10-16T16:05:07;10.70;;;2.25;;
59147;SDS011;44930;52.878;6.168;2022-10-16T16:07:34;15.00;;;2.47;;
59147;SDS011;44930;52.878;6.168;2022-10-16T16:10:01;18.33;;;2.95;;
59147;SDS011;44930;52.878;6.168;2022-10-16T16:12:28;15.25;;;2.08;;
59147;SDS011;44930;52.878;6.168;2022-10-16T16:14:53;9.05;;;2.03;;
59147;SDS011;44930;52.878;6.168;2022-10-16T16:17:19;8.80;;;2.17;;
59147;SDS011;44930;52.878;6.168;2022-10-16T16:19:45;11.23;;;2.53;;
59147;SDS011;44930;52.878;6.168;2022-10-16T16:22:11;15.43;;;2.38;;
59147;SDS011;44930;52.878;6.168;2022-10-16T16:24:36;8.45;;;2.50;;
59147;SDS011;44930;52.878;6.168;2022-10-16T16:27:02;12.77;;;2.30;;
59147;SDS011;44930;52.878;6.168;2022-10-16T16:29:27;11.18;;;2.15;;
59147;SDS011;44930;52.878;6.168;2022-10-16T16:31:53;11.07;;;1.88;;
59147;SDS011;44930;52.878;6.168;2022-10-16T16:34:22;13.82;;;2.10;;
59147;SDS011;44930;52.878;6.168;2022-10-16T16:36:49;15.27;;;2.50;;
59147;SDS011;44930;52.878;6.168;2022-10-16T16:39:15;6.47;;;1.60;;
59147;SDS011;44930;52.878;6.168;2022-10-16T16:41:41;9.77;;;2.60;;
59147;SDS011;44930;52.878;6.168;2022-10-16T16:44:07;12.68;;;2.13;;
59147;SDS011;44930;52.878;6.168;2022-10-16T16:46:35;11.88;;;2.85;;
59147;SDS011;44930;52.878;6.168;2022-10-16T16:49:01;9.38;;;1.83;;
59147;SDS011;44930;52.878;6.168;2022-10-16T16:51:28;6.88;;;2.63;;
59147;SDS011;44930;52.878;6.168;2022-10-16T16:53:53;7.65;;;1.70;;
59147;SDS011;44930;52.878;6.168;2022-10-16T16:56:20;10.00;;;1.67;;
59147;SDS011;44930;52.878;6.168;2022-10-16T16:58:47;14.88;;;3.20;;